Time;durP1;ratioP1;P1;durP2;ratioP2;P2;SDS_P1;SDS_P2;PMS_P1;PMS_P2;Temp;Humidity;BMP_temperature;BMP_pressure;BME280_temperature;BME280_humidity;BME280_pressure;Samples;Min_cycle;Max_cycle;Signal;HPM_P1;HPM_P2
2022/10/06 00:00:17;;;;;;;4.10;1.80;;;;;;;16.52;93.32;100888.97;5048759;28;20104;-67
2022/10/06 00:02:43;;;;;;;3.88;1.95;;;;;;;16.48;95.01;100895.41;5033796;28;20092;-67
2022/10/06 00:05:08;;;;;;;10.80;2.28;;;;;;;16.37;95.49;100897.66;5053217;28;20021;-67
2022/10/06 00:07:35;;;;;;;7.20;2.17;;;;;;;16.28;96.38;100898.91;5053307;28;20108;-67
2022/10/06 00:10:00;;;;;;;2.90;1.95;;;;;;;16.16;96.15;100888.66;5053237;28;20104;-67
2022/10/06 00:12:25;;;;;;;4.82;1.98;;;;;;;16.08;97.53;100895.31;5052962;28;20031;-68
2022/10/06 00:14:51;;;;;;;3.63;1.92;;;;;;;16.02;97.56;100907.16;5053086;28;20040;-67
2022/10/06 00:17:17;;;;;;;3.50;1.95;;;;;;;16.00;99.11;100910.84;5053071;28;20025;-68
2022/10/06 00:19:42;;;;;;;2.80;1.48;;;;;;;15.88;99.42;100901.47;5052975;28;20029;-68
2022/10/06 00:22:07;;;;;;;4.10;2.00;;;;;;;15.92;100.00;100921.00;5052924;28;20376;-68
2022/10/06 00:24:33;;;;;;;5.60;2.20;;;;;;;15.88;99.99;100924.75;5052831;28;20025;-68
2022/10/06 00:26:59;;;;;;;4.97;2.20;;;;;;;15.85;100.00;100933.78;5052664;28;20044;-69
2022/10/06 00:29:25;;;;;;;4.07;2.30;;;;;;;15.83;100.00;100943.72;5052832;28;20032;-68
2022/10/06 00:31:50;;;;;;;6.50;2.22;;;;;;;15.80;100.00;100928.63;5018676;28;20104;-68
2022/10/06 00:34:17;;;;;;;5.35;2.50;;;;;;;15.79;100.00;100936.72;5032912;28;20044;-68
2022/10/06 00:36:42;;;;;;;5.45;2.38;;;;;;;15.77;100.00;100935.91;5032764;28;20116;-68
2022/10/06 00:39:08;;;;;;;5.00;2.10;;;;;;;15.81;100.00;100930.34;5032750;28;20128;-68
2022/10/06 00:41:34;;;;;;;4.57;2.28;;;;;;;15.85;100.00;100930.25;5032076;28;20095;-68
2022/10/06 00:43:59;;;;;;;6.65;3.35;;;;;;;15.93;100.00;100933.50;5032378;28;20029;-67
2022/10/06 00:46:37;;;;;;;5.95;2.35;;;;;;;16.06;100.00;100937.44;5042294;28;20074;-68
2022/10/06 00:49:08;;;;;;;5.13;2.55;;;;;;;16.15;100.00;100940.63;5052360;28;20105;-68
2022/10/06 00:51:38;;;;;;;5.00;2.33;;;;;;;16.22;100.00;100942.13;5012498;28;20034;-68
2022/10/06 00:54:04;;;;;;;5.30;2.30;;;;;;;16.31;100.00;100944.41;5012433;28;20029;-68
2022/10/06 00:56:30;;;;;;;5.10;2.65;;;;;;;16.40;100.00;100945.84;5012768;28;20041;-69
2022/10/06 00:58:55;;;;;;;7.35;2.92;;;;;;;16.46;99.55;100940.25;5012571;28;20172;-68
2022/10/06 01:01:21;;;;;;;5.57;2.38;;;;;;;16.52;99.23;100940.00;5020968;28;20028;-69
2022/10/06 01:03:58;;;;;;;4.55;2.45;;;;;;;16.54;98.74;100939.00;5030977;28;20021;-68
2022/10/06 01:06:23;;;;;;;7.30;2.67;;;;;;;16.50;99.07;100936.50;5052100;28;20027;-69
2022/10/06 01:08:49;;;;;;;5.47;3.00;;;;;;;16.58;98.40;100945.13;5051884;28;20025;-69
2022/10/06 01:11:15;;;;;;;6.80;3.08;;;;;;;16.59;97.92;100946.88;5051747;28;20142;-69
2022/10/06 01:13:44;;;;;;;6.10;2.85;;;;;;;16.54;97.91;100941.69;5033721;28;20024;-69
2022/10/06 01:16:18;;;;;;;6.90;2.42;;;;;;;16.55;97.74;100937.19;5051970;28;20095;-69
2022/10/06 01:18:46;;;;;;;5.55;2.75;;;;;;;16.63;97.08;100954.75;5051429;28;20366;-70
2022/10/06 01:21:24;;;;;;;9.05;3.20;;;;;;;16.64;97.44;100952.91;5051851;28;20100;-69
2022/10/06 01:23:51;;;;;;;8.98;3.05;;;;;;;16.66;98.04;100953.72;5051887;28;20035;-68
2022/10/06 01:26:20;;;;;;;4.80;2.55;;;;;;;16.67;97.63;100961.72;5051956;28;20049;-69
2022/10/06 01:28:46;;;;;;;7.13;2.90;;;;;;;16.70;97.22;100955.34;5051861;28;20020;-68
2022/10/06 01:31:12;;;;;;;4.95;2.58;;;;;;;16.64;97.20;100944.84;5040889;28;20711;-69
2022/10/06 01:33:37;;;;;;;6.07;2.65;;;;;;;16.71;96.47;100962.47;5031470;28;20568;-68
2022/10/06 01:36:03;;;;;;;4.72;2.58;;;;;;;16.70;96.58;100966.09;5031824;28;20116;-69
2022/10/06 01:38:29;;;;;;;7.55;2.85;;;;;;;16.69;96.66;100969.72;5031391;28;20032;-68
2022/10/06 01:40:54;;;;;;;7.13;3.00;;;;;;;16.66;96.56;100962.66;5031839;28;20109;-68
2022/10/06 01:43:20;;;;;;;8.55;2.67;;;;;;;16.62;96.33;100973.63;5031712;28;20053;-69
2022/10/06 01:45:52;;;;;;;8.45;3.90;;;;;;;16.57;96.96;100978.31;5031629;28;20033;-69
2022/10/06 01:48:18;;;;;;;6.30;2.80;;;;;;;16.55;97.17;100970.31;5031457;28;20041;-68
2022/10/06 01:50:43;;;;;;;18.95;2.97;;;;;;;16.55;97.32;100970.31;5031596;28;20033;-68
2022/10/06 01:53:09;;;;;;;4.97;2.55;;;;;;;16.54;97.49;100971.22;5048063;28;20056;-69
2022/10/06 01:55:35;;;;;;;5.40;2.88;;;;;;;16.52;97.76;100972.25;5051483;28;20021;-68
2022/10/06 01:58:00;;;;;;;7.55;2.72;;;;;;;16.52;97.96;100969.56;5051592;28;20786;-69
2022/10/06 02:00:26;;;;;;;4.90;2.92;;;;;;;16.51;97.65;100981.22;5046930;28;20029;-69
2022/10/06 02:02:51;;;;;;;5.40;2.67;;;;;;;16.52;98.17;100978.47;5032946;28;20025;-69
2022/10/06 02:05:16;;;;;;;7.97;2.78;;;;;;;16.53;97.66;100995.47;5051213;28;20032;-69
2022/10/06 02:07:42;;;;;;;5.85;3.30;;;;;;;16.50;97.90;100984.84;5050563;28;20028;-68
2022/10/06 02:10:08;;;;;;;5.68;2.90;;;;;;;16.42;97.83;100986.97;5050917;28;20040;-69
2022/10/06 02:12:34;;;;;;;6.75;2.85;;;;;;;16.42;97.92;101003.06;5051121;28;20496;-68
2022/10/06 02:15:00;;;;;;;6.10;2.90;;;;;;;16.36;97.63;101003.31;5050991;28;20100;-67
2022/10/06 02:17:27;;;;;;;7.38;3.08;;;;;;;16.33;97.63;101008.78;5050869;28;20031;-66
2022/10/06 02:19:52;;;;;;;5.85;2.92;;;;;;;16.31;98.76;101016.91;5051415;28;20475;-68
2022/10/06 02:22:18;;;;;;;5.88;2.78;;;;;;;16.33;98.29;101014.16;5051824;28;20116;-67
2022/10/06 02:24:43;;;;;;;5.53;3.10;;;;;;;16.37;99.27;101022.06;5054881;28;20025;-68
2022/10/06 02:27:08;;;;;;;5.75;2.70;;;;;;;16.50;99.27;101034.09;5055186;28;20473;-67
2022/10/06 02:29:34;;;;;;;9.02;3.08;;;;;;;16.57;99.54;101038.25;5055118;28;20040;-67
2022/10/06 02:31:59;;;;;;;6.03;3.20;;;;;;;16.66;99.79;101045.06;5037557;28;20032;-68
2022/10/06 02:34:25;;;;;;;5.80;3.13;;;;;;;16.73;99.21;101051.94;5035054;28;20025;-68
2022/10/06 02:36:51;;;;;;;6.25;2.65;;;;;;;16.81;98.52;101052.50;5035301;28;20380;-67
2022/10/06 02:39:16;;;;;;;7.32;3.33;;;;;;;16.87;97.76;101054.91;5034714;28;20021;-68
2022/10/06 02:41:42;;;;;;;6.38;2.70;;;;;;;16.95;97.46;101053.66;5035100;28;20030;-67
2022/10/06 02:44:07;;;;;;;4.43;2.38;;;;;;;17.00;97.45;101051.66;5034736;28;20424;-67
2022/10/06 02:46:33;;;;;;;5.68;2.70;;;;;;;17.10;96.51;101060.19;5034872;28;20451;-68
2022/10/06 02:48:58;;;;;;;5.03;2.80;;;;;;;17.18;95.75;101060.78;5053107;28;20527;-67
2022/10/06 02:51:24;;;;;;;7.50;3.28;;;;;;;17.22;95.38;101067.75;5054808;28;20543;-67
2022/10/06 02:53:50;;;;;;;11.50;3.72;;;;;;;17.24;95.18;101070.38;5044112;28;20096;-67
2022/10/06 02:56:23;;;;;;;6.22;3.03;;;;;;;17.24;95.13;101082.00;5034643;28;20036;-67
2022/10/06 02:58:49;;;;;;;;;;;;;;;17.27;95.44;101087.25;5035026;28;20087;-66
2022/10/06 03:01:17;;;;;;;5.45;2.70;;;;;;;17.29;95.42;101081.81;5034767;28;19908;-67
2022/10/06 03:03:45;;;;;;;5.93;2.45;;;;;;;17.32;95.67;101090.63;5042946;28;20044;-67
2022/10/06 03:06:22;;;;;;;6.65;3.00;;;;;;;17.35;95.40;101095.00;5054312;28;20465;-67
2022/10/06 03:08:49;;;;;;;7.25;3.13;;;;;;;17.39;95.81;101096.59;5053639;28;20028;-67
2022/10/06 03:11:18;;;;;;;7.90;2.72;;;;;;;17.40;95.96;101101.91;5054400;28;20082;-67
2022/10/06 03:13:45;;;;;;;10.77;3.05;;;;;;;17.41;96.02;101094.72;5054124;28;20036;-67
2022/10/06 03:16:19;;;;;;;7.68;3.78;;;;;;;17.44;95.93;101106.25;5054116;28;20040;-67
2022/10/06 03:18:48;;;;;;;4.80;3.22;;;;;;;17.48;95.03;101115.94;5053121;28;20029;-67
2022/10/06 03:21:14;;;;;;;6.32;2.83;;;;;;;17.50;94.18;101116.75;5052877;28;20520;-67
2022/10/06 03:23:42;;;;;;;4.82;2.88;;;;;;;17.53;94.20;101130.06;5053112;28;20039;-67
2022/10/06 03:26:07;;;;;;;7.28;2.58;;;;;;;17.51;94.42;101131.09;5053025;28;20029;-68
2022/10/06 03:28:33;;;;;;;6.18;2.75;;;;;;;17.52;94.26;101143.59;5053099;28;20035;-68
2022/10/06 03:31:04;;;;;;;6.07;2.85;;;;;;;17.52;93.83;101132.81;5043763;28;20021;-67
2022/10/06 03:33:31;;;;;;;6.28;2.47;;;;;;;17.51;94.00;101140.00;5032692;28;20044;-67
2022/10/06 03:36:10;;;;;;;6.38;2.90;;;;;;;17.46;93.59;101125.88;5033731;28;20033;-67
2022/10/06 03:38:36;;;;;;;6.05;2.40;;;;;;;17.42;93.48;101118.00;5033951;28;20048;-67
2022/10/06 03:41:06;;;;;;;5.85;2.63;;;;;;;17.51;94.06;101156.16;5033783;28;20079;-67
2022/10/06 03:43:33;;;;;;;7.32;2.45;;;;;;;17.51;94.42;101149.91;5033300;28;20032;-66
2022/10/06 03:45:59;;;;;;;4.28;2.53;;;;;;;17.52;94.82;101157.94;5033541;28;20503;-66
2022/10/06 03:48:28;;;;;;;5.85;3.20;;;;;;;17.56;94.23;101170.28;5033575;28;20029;-66
2022/10/06 03:50:57;;;;;;;5.30;2.40;;;;;;;17.57;94.99;101171.16;5033811;28;20021;-67
2022/10/06 03:53:26;;;;;;;6.05;2.75;;;;;;;17.60;95.23;101177.31;5033781;28;20050;-67
2022/10/06 03:56:09;;;;;;;5.93;3.22;;;;;;;17.59;95.70;101180.94;5051670;28;20032;-67
2022/10/06 03:58:37;;;;;;;7.73;4.10;;;;;;;17.62;95.93;101188.88;5053287;28;20091;-67
2022/10/06 04:01:04;;;;;;;9.85;3.05;;;;;;;17.62;95.99;101191.56;5043614;28;20029;-68
2022/10/06 04:03:31;;;;;;;9.77;4.10;;;;;;;17.64;96.47;101195.06;5040206;28;20460;-67
2022/10/06 04:05:58;;;;;;;17.50;4.18;;;;;;;17.57;96.75;101193.59;5053310;28;20025;-66
2022/10/06 04:08:24;;;;;;;21.70;4.97;;;;;;;17.61;97.19;101202.41;5053143;28;20112;-68
2022/10/06 04:10:50;;;;;;;11.50;3.28;;;;;;;17.63;97.91;101196.00;5052344;28;20079;-68
2022/10/06 04:13:20;;;;;;;11.23;4.00;;;;;;;17.64;97.89;101205.84;5052987;28;20484;-67
2022/10/06 04:15:46;;;;;;;5.85;2.85;;;;;;;17.67;98.12;101203.00;5052926;28;20744;-67
2022/10/06 04:18:13;;;;;;;9.32;2.88;;;;;;;17.68;98.52;101206.56;5052907;28;20036;-67
2022/10/06 04:20:39;;;;;;;7.15;2.78;;;;;;;17.65;98.83;101207.59;5052793;28;20035;-68
2022/10/06 04:23:05;;;;;;;8.60;3.08;;;;;;;17.67;99.18;101211.09;5052903;28;20033;-67
2022/10/06 04:25:32;;;;;;;7.32;2.92;;;;;;;17.65;99.77;101212.97;5052698;28;20033;-67
2022/10/06 04:27:57;;;;;;;5.53;2.50;;;;;;;17.64;100.00;101216.59;5052709;28;20051;-67
2022/10/06 04:30:25;;;;;;;6.13;3.10;;;;;;;17.64;100.00;101221.09;5048576;28;20026;-67
2022/10/06 04:32:51;;;;;;;7.63;2.88;;;;;;;17.63;100.00;101230.97;5032778;28;20034;-67
2022/10/06 04:35:16;;;;;;;7.65;2.60;;;;;;;17.62;100.00;101226.56;5032856;28;20469;-67
2022/10/06 04:37:42;;;;;;;5.25;2.63;;;;;;;17.60;100.00;101223.03;5014982;28;20045;-67
2022/10/06 04:40:08;;;;;;;5.28;2.50;;;;;;;17.58;100.00;101234.78;5032113;28;20067;-67
2022/10/06 04:42:33;;;;;;;8.25;2.50;;;;;;;17.59;100.00;101237.44;5040406;28;20028;-67
2022/10/06 04:44:58;;;;;;;5.15;2.60;;;;;;;17.60;100.00;101255.34;5051809;28;20025;-67
2022/10/06 04:47:24;;;;;;;7.93;2.58;;;;;;;17.56;100.00;101244.78;5048603;28;20416;-67
2022/10/06 04:49:49;;;;;;;6.68;2.25;;;;;;;17.61;100.00;101261.59;5032214;28;20060;-67
2022/10/06 04:52:15;;;;;;;9.05;2.55;;;;;;;17.60;100.00;101259.81;5025976;28;20084;-67
2022/10/06 04:54:40;;;;;;;4.60;2.10;;;;;;;17.58;100.00;101254.50;5012622;28;20022;-67
2022/10/06 04:57:05;;;;;;;6.95;2.17;;;;;;;17.47;100.00;101251.41;5012584;28;20033;-67
2022/10/06 05:02:15;;;;;;;7.70;2.40;;;;;;;17.55;100.00;101269.91;5012622;28;20037;-68
2022/10/06 05:04:40;;;;;;;5.90;2.70;;;;;;;17.56;100.00;101277.06;5028876;28;20065;-68
2022/10/06 05:07:06;;;;;;;4.18;1.83;;;;;;;17.46;100.00;101263.06;5031920;28;20104;-68
2022/10/06 05:09:31;;;;;;;5.82;2.25;;;;;;;17.57;100.00;101274.28;5031611;28;20084;-68
2022/10/06 05:11:57;;;;;;;7.68;1.73;;;;;;;17.56;100.00;101274.38;5032234;28;20043;-68
2022/10/06 05:14:23;;;;;;;9.63;2.63;;;;;;;17.56;100.00;101272.53;5032044;28;20021;-69
2022/10/06 05:16:48;;;;;;;28.30;3.65;;;;;;;17.44;100.00;101267.63;5031874;28;20485;-68
2022/10/06 05:19:14;;;;;;;8.25;2.50;;;;;;;17.56;100.00;101288.66;5031850;28;20044;-69
2022/10/06 05:21:39;;;;;;;10.30;2.08;;;;;;;17.54;100.00;101289.69;5031072;28;20078;-68
2022/10/06 05:24:05;;;;;;;15.80;2.97;;;;;;;17.51;100.00;101290.66;5031360;28;20029;-68
2022/10/06 05:26:34;;;;;;;18.77;2.65;;;;;;;17.52;100.00;101296.94;5020806;28;20485;-68
2022/10/06 05:29:00;;;;;;;5.32;2.15;;;;;;;17.51;100.00;101306.81;5011800;28;20445;-68
2022/10/06 05:31:28;;;;;;;3.30;1.38;;;;;;;17.48;100.00;101301.56;5012051;28;20026;-68
2022/10/06 05:33:54;;;;;;;4.05;1.48;;;;;;;17.40;100.00;101294.69;5012122;28;20022;-68
2022/10/06 05:36:23;;;;;;;5.45;1.40;;;;;;;17.43;100.00;101311.59;5011876;28;20470;-65
2022/10/06 05:38:48;;;;;;;4.95;1.58;;;;;;;17.41;99.61;101318.00;5011937;28;20034;-67
2022/10/06 05:41:16;;;;;;;2.95;1.10;;;;;;;17.40;99.02;101319.78;5011966;28;20045;-67
2022/10/06 05:43:42;;;;;;;4.38;1.50;;;;;;;17.39;98.71;101323.44;5011861;28;20022;-67
2022/10/06 05:46:19;;;;;;;5.88;1.42;;;;;;;17.40;98.77;101321.59;5011740;28;20034;-66
2022/10/06 05:48:49;;;;;;;7.97;1.60;;;;;;;17.41;97.88;101326.94;5011869;28;20033;-67
2022/10/06 05:51:16;;;;;;;4.55;1.40;;;;;;;17.42;97.43;101330.50;5011673;28;20033;-67
2022/10/06 05:53:42;;;;;;;2.45;1.10;;;;;;;17.39;97.45;101334.19;5030059;28;20056;-67
2022/10/06 05:56:16;;;;;;;2.78;1.20;;;;;;;17.36;97.60;101336.13;5022240;28;20018;-67
2022/10/06 05:58:42;;;;;;;;;;;;;;;17.37;97.68;101330.69;5016334;28;20018;-67
2022/10/06 06:01:21;;;;;;;4.80;1.25;;;;;;;17.33;97.66;101339.78;5015837;28;20258;-67
2022/10/06 06:03:54;;;;;;;3.75;0.95;;;;;;;17.31;97.29;101340.81;5024810;28;20043;-67
2022/10/06 06:06:24;;;;;;;4.30;1.00;;;;;;;17.30;97.20;101345.28;5035426;28;20397;-67
2022/10/06 06:09:01;;;;;;;6.63;1.25;;;;;;;17.28;96.78;101347.16;5035614;28;20368;-67
2022/10/06 06:11:30;;;;;;;4.30;1.17;;;;;;;17.28;96.94;101349.84;5035521;28;20029;-67
2022/10/06 06:14:00;;;;;;;3.72;0.93;;;;;;;17.27;96.46;101358.88;5034141;28;20424;-67
2022/10/06 06:16:29;;;;;;;3.97;1.02;;;;;;;17.27;95.88;101353.50;5034584;28;20100;-67
2022/10/06 06:18:55;;;;;;;5.78;0.90;;;;;;;17.18;95.56;101345.78;5032781;28;20045;-67
2022/10/06 06:21:21;;;;;;;3.40;0.80;;;;;;;17.27;95.24;101369.63;5032705;28;20037;-67
2022/10/06 06:23:47;;;;;;;4.95;0.85;;;;;;;17.25;94.71;101376.88;5034383;28;20021;-67
2022/10/06 06:26:24;;;;;;;3.28;0.88;;;;;;;17.22;94.58;101374.31;5026401;28;20382;-67
2022/10/06 06:28:51;;;;;;;1.60;0.80;;;;;;;17.24;93.92;101380.50;4995651;28;20113;-67
2022/10/06 06:31:25;;;;;;;7.80;1.10;;;;;;;17.22;93.01;101386.88;5007074;28;20030;-68
2022/10/06 06:33:53;;;;;;;1.85;0.70;;;;;;;17.17;93.20;101387.03;5015277;28;20038;-67
2022/10/06 06:36:21;;;;;;;5.38;1.30;;;;;;;17.20;93.00;101397.69;5012940;28;20042;-67
2022/10/06 06:38:50;;;;;;;2.55;0.60;;;;;;;17.22;93.19;101395.81;5012685;28;20033;-66
2022/10/06 06:41:19;;;;;;;3.20;0.85;;;;;;;17.22;93.26;101400.31;5013086;28;20025;-66
2022/10/06 06:43:46;;;;;;;4.32;1.05;;;;;;;17.22;93.41;101406.56;5014751;28;20108;-66
2022/10/06 06:46:13;;;;;;;2.58;0.70;;;;;;;17.12;92.36;101397.09;5012815;28;20026;-67
2022/10/06 06:48:40;;;;;;;3.30;0.55;;;;;;;17.14;92.89;101411.38;5016201;28;20031;-67
2022/10/06 06:51:06;;;;;;;1.52;0.60;;;;;;;17.18;92.83;101421.09;5016102;28;20393;-66
2022/10/06 06:53:33;;;;;;;1.58;0.65;;;;;;;17.18;92.95;101420.19;5031738;28;20064;-67
2022/10/06 06:55:58;;;;;;;4.13;0.68;;;;;;;17.15;92.66;101425.69;5034553;28;20025;-67
2022/10/06 06:58:24;;;;;;;3.25;0.80;;;;;;;17.16;93.09;101422.94;5034541;28;20032;-67
2022/10/06 07:00:49;;;;;;;2.65;0.57;;;;;;;17.10;92.96;101415.09;5033077;28;20076;-67
2022/10/06 07:03:18;;;;;;;2.15;0.70;;;;;;;17.26;93.01;101427.06;5039451;28;20100;-67
2022/10/06 07:05:46;;;;;;;2.22;1.08;;;;;;;17.25;92.88;101443.25;5030544;28;20052;-67
2022/10/06 07:08:19;;;;;;;2.70;0.60;;;;;;;17.27;92.65;101447.63;5053402;28;20028;-67
2022/10/06 07:10:45;;;;;;;3.60;0.68;;;;;;;17.29;92.79;101440.38;5039474;28;20040;-67
2022/10/06 07:13:15;;;;;;;3.05;0.65;;;;;;;17.34;93.02;101443.78;5034268;28;20424;-67
2022/10/06 07:26:42;;;;;;;7.88;1.05;;;;;;;17.73;90.48;101461.09;5013457;28;20045;-67
2022/10/06 07:29:08;;;;;;;8.63;1.20;;;;;;;17.83;91.15;101465.19;5014075;28;20034;-67
2022/10/06 07:31:35;;;;;;;6.03;1.63;;;;;;;17.92;91.78;101463.97;5027367;28;20389;-67
2022/10/06 07:34:02;;;;;;;5.57;1.23;;;;;;;17.96;92.41;101466.47;5019622;28;20072;-67
2022/10/06 07:36:29;;;;;;;12.52;1.45;;;;;;;17.86;92.90;101443.53;5031983;28;20021;-67
2022/10/06 07:38:55;;;;;;;3.58;1.33;;;;;;;18.08;93.17;101462.41;5023550;28;20037;-67
2022/10/06 07:41:20;;;;;;;8.48;1.73;;;;;;;18.20;94.00;101481.63;5023242;28;20021;-67
2022/10/06 07:43:46;;;;;;;4.40;0.88;;;;;;;18.24;94.12;101472.50;5014216;28;20034;-66
2022/10/06 07:46:12;;;;;;;7.05;1.50;;;;;;;18.28;93.23;101466.06;5019267;28;20080;-66
2022/10/06 07:48:38;;;;;;;3.92;1.00;;;;;;;18.38;92.07;101469.25;5027687;28;20036;-67
2022/10/06 07:51:12;;;;;;;3.50;0.98;;;;;;;18.48;90.82;101473.34;5024743;28;20041;-67
2022/10/06 07:53:37;;;;;;;;;;;;;;;18.57;87.30;101469.34;5021338;28;20074;-66
2022/10/06 07:56:05;;;;;;;2.10;0.98;;;;;;;18.70;85.00;101482.25;5017366;28;19989;-66
2022/10/06 07:58:32;;;;;;;2.28;0.70;;;;;;;18.83;84.95;101482.63;5027693;28;20537;-66
2022/10/06 08:01:06;;;;;;;1.60;0.50;;;;;;;18.87;83.76;101478.84;5023389;28;20100;-66
2022/10/06 08:03:32;;;;;;;4.38;0.90;;;;;;;18.87;82.65;101484.22;5030607;28;20037;-66
2022/10/06 08:05:59;;;;;;;9.07;1.17;;;;;;;18.97;83.09;101490.97;5020373;28;20081;-66
2022/10/06 08:08:24;;;;;;;3.55;1.17;;;;;;;18.94;81.84;101486.63;5016185;28;20498;-66
2022/10/06 08:10:55;;;;;;;2.17;0.90;;;;;;;19.10;81.91;101479.59;5022233;28;20041;-67
2022/10/06 08:13:20;;;;;;;4.70;0.80;;;;;;;19.28;81.96;101476.06;5013329;28;20033;-66
2022/10/06 08:15:49;;;;;;;4.25;0.90;;;;;;;19.61;81.17;101495.28;5017552;28;20033;-67
2022/10/06 08:18:15;;;;;;;2.42;0.80;;;;;;;19.84;80.16;101492.38;5019042;28;20659;-66
2022/10/06 08:20:41;;;;;;;5.47;0.90;;;;;;;20.01;78.04;101499.69;5017987;28;20029;-66
2022/10/06 08:23:10;;;;;;;4.72;2.65;;;;;;;19.96;76.60;101486.41;5033101;28;20116;-67
2022/10/06 08:25:41;;;;;;;5.20;0.80;;;;;;;19.97;77.55;101498.94;5008895;28;20029;-67
2022/10/06 08:28:07;;;;;;;5.82;1.55;;;;;;;19.86;78.44;101506.69;5018051;28;20038;-66
2022/10/06 08:30:33;;;;;;;5.25;1.60;;;;;;;19.70;78.26;101508.38;5023788;28;20147;-66
2022/10/06 08:32:59;;;;;;;5.18;1.67;;;;;;;19.60;79.96;101516.00;5023254;28;20037;-67
2022/10/06 08:35:24;;;;;;;3.08;0.90;;;;;;;19.64;79.87;101511.34;5020348;28;20376;-66
2022/10/06 08:37:51;;;;;;;4.18;0.75;;;;;;;19.72;80.33;101509.16;5015978;28;20025;-67
2022/10/06 08:40:16;;;;;;;4.35;0.57;;;;;;;19.78;79.55;101519.69;5021802;28;20033;-67
2022/10/06 08:42:49;;;;;;;5.63;0.85;;;;;;;19.89;79.00;101511.94;5016629;28;20477;-67
2022/10/06 08:45:23;;;;;;;4.80;0.88;;;;;;;19.98;79.06;101516.94;5021572;28;20036;-66
2022/10/06 08:48:20;;;;;;;2.58;0.73;;;;;;;19.91;77.13;101512.75;5016112;28;20153;-66
2022/10/06 08:51:17;;;;;;;7.03;0.70;;;;;;;19.93;76.99;101518.09;5013353;28;20029;-66
2022/10/06 08:53:56;;;;;;;4.25;0.75;;;;;;;19.98;76.77;101516.03;5016064;28;20061;-66
2022/10/06 08:56:26;;;;;;;1.77;0.80;;;;;;;20.11;77.43;101523.50;5016308;28;20547;-66
2022/10/06 08:59:03;;;;;;;10.00;1.20;;;;;;;20.25;77.82;101526.44;5020165;28;20540;-66
2022/10/06 09:01:40;;;;;;;6.18;1.35;;;;;;;20.50;77.86;101536.91;5017630;28;20037;-67
2022/10/06 09:04:06;;;;;;;4.88;1.50;;;;;;;20.67;76.45;101529.72;5019351;28;20029;-66
2022/10/06 09:06:49;;;;;;;3.13;1.15;;;;;;;20.86;75.63;101540.50;5020598;28;20120;-66
2022/10/06 09:09:34;;;;;;;8.05;0.98;;;;;;;20.97;74.35;101526.44;5015085;28;20033;-67
2022/10/06 09:12:09;;;;;;;4.10;0.85;;;;;;;21.01;74.03;101528.03;5029968;28;20033;-67
2022/10/06 09:14:46;;;;;;;2.28;0.85;;;;;;;21.06;72.90;101536.78;5018479;28;20021;-67
2022/10/06 09:17:19;;;;;;;5.80;1.08;;;;;;;21.15;72.60;101544.47;5018817;28;20025;-67
2022/10/06 09:19:52;;;;;;;3.38;1.15;;;;;;;21.23;72.60;101539.50;5012964;28;20029;-67
2022/10/06 09:22:20;;;;;;;4.47;1.20;;;;;;;21.29;71.36;101541.88;5013562;28;20473;-67
2022/10/06 09:24:49;;;;;;;3.88;1.05;;;;;;;21.32;71.46;101531.78;5018588;28;20192;-68
2022/10/06 09:27:19;;;;;;;2.30;1.02;;;;;;;21.37;71.39;101537.81;5014507;28;20374;-68
2022/10/06 09:29:47;;;;;;;3.67;0.98;;;;;;;21.53;69.68;101533.34;5015036;28;21064;-68
2022/10/06 09:32:13;;;;;;;4.00;0.73;;;;;;;21.81;68.06;101530.91;5016025;28;20029;-68
2022/10/06 09:34:58;;;;;;;5.30;0.82;;;;;;;22.22;68.43;101534.06;5016273;28;20113;-68
2022/10/06 09:37:25;;;;;;;4.75;1.33;;;;;;;22.25;66.37;101547.44;5015937;28;20044;-67
2022/10/06 09:39:52;;;;;;;1.98;0.93;;;;;;;22.22;67.16;101544.91;5016839;28;20485;-67
2022/10/06 09:42:28;;;;;;;6.38;0.82;;;;;;;21.91;67.33;101539.44;5015173;28;20032;-67
2022/10/06 09:45:15;;;;;;;3.67;1.00;;;;;;;21.93;68.29;101546.50;5012400;28;20048;-68
2022/10/06 09:47:44;;;;;;;3.55;0.65;;;;;;;22.13;68.29;101545.41;5017058;28;20030;-67
2022/10/06 09:50:14;;;;;;;2.72;0.70;;;;;;;22.47;65.65;101542.53;5013695;28;20696;-68
2022/10/06 09:53:02;;;;;;;3.58;0.70;;;;;;;22.87;64.86;101547.41;5014785;28;20057;-67
2022/10/06 09:55:36;;;;;;;5.72;1.00;;;;;;;23.27;63.00;101545.94;5013789;28;20108;-68
2022/10/06 09:58:22;;;;;;;2.90;0.70;;;;;;;23.36;62.85;101543.53;5015139;28;20393;-67
2022/10/06 10:00:56;;;;;;;5.93;0.73;;;;;;;23.40;61.58;101546.94;5012243;28;20397;-67
2022/10/06 10:03:29;;;;;;;5.20;1.02;;;;;;;23.40;61.80;101547.81;5012769;28;20120;-67
2022/10/06 10:05:54;;;;;;;1.63;0.60;;;;;;;23.58;60.33;101547.66;5018776;28;20791;-67
2022/10/06 10:08:25;;;;;;;3.05;1.10;;;;;;;23.71;59.80;101548.63;5015823;28;20025;-68
2022/10/06 10:14:00;;;;;;;3.83;0.80;;;;;;;23.79;60.92;101546.31;5015554;28;20112;-67
2022/10/06 10:16:34;;;;;;;3.40;0.70;;;;;;;23.73;60.78;101553.00;5012551;28;20018;-67
2022/10/06 10:19:04;;;;;;;2.83;0.65;;;;;;;23.74;59.73;101543.03;5015490;28;20021;-67
2022/10/06 10:21:32;;;;;;;5.85;0.85;;;;;;;23.58;58.77;101550.34;5014965;28;20076;-67
2022/10/06 10:24:01;;;;;;;5.47;1.08;;;;;;;23.54;60.19;101546.09;5011400;28;20037;-68
2022/10/06 10:26:40;;;;;;;4.43;0.70;;;;;;;23.49;59.49;101542.78;5013685;28;20030;-67
2022/10/06 10:29:31;;;;;;;5.18;0.70;;;;;;;23.38;60.14;101538.91;5013427;28;20104;-68
2022/10/06 10:32:23;;;;;;;4.05;0.80;;;;;;;23.39;60.31;101537.91;5015704;28;20524;-67
2022/10/06 10:34:58;;;;;;;4.22;0.80;;;;;;;23.28;61.46;101537.69;5015087;28;20091;-67
2022/10/06 10:37:58;;;;;;;4.97;0.88;;;;;;;23.11;61.02;101543.22;5015521;28;20025;-68
2022/10/06 10:40:32;;;;;;;7.28;1.27;;;;;;;23.03;61.57;101540.09;5013662;28;20052;-68
2022/10/06 10:43:13;;;;;;;3.47;0.88;;;;;;;22.74;60.95;101543.69;5013436;28;20033;-68
2022/10/06 10:45:49;;;;;;;2.47;0.98;;;;;;;22.70;61.70;101544.81;5018043;28;20045;-67
2022/10/06 10:48:21;;;;;;;3.03;0.65;;;;;;;22.65;61.80;101538.78;5019528;28;20033;-68
2022/10/06 10:50:56;;;;;;;6.80;1.30;;;;;;;22.49;59.47;101540.59;5020364;28;20021;-68
2022/10/06 10:53:33;;;;;;;2.33;0.73;;;;;;;22.47;62.81;101538.97;5015273;28;20309;-67
2022/10/06 10:56:02;;;;;;;1.85;0.73;;;;;;;22.37;61.36;101544.03;5026010;28;20053;-67
2022/10/06 10:58:35;;;;;;;3.47;1.33;;;;;;;22.39;62.37;101531.25;5017408;28;20112;-67
2022/10/06 11:01:39;;;;;;;4.25;0.68;;;;;;;22.54;60.41;101529.50;5019493;28;20468;-67
2022/10/06 11:04:10;;;;;;;2.97;0.93;;;;;;;22.78;60.84;101523.56;5001208;28;20037;-68
2022/10/06 11:06:42;;;;;;;2.58;1.08;;;;;;;23.16;60.85;101530.25;5016248;28;20045;-66
2022/10/06 11:09:21;;;;;;;2.83;0.68;;;;;;;23.46;59.68;101532.13;5016209;28;20025;-66
2022/10/06 11:12:02;;;;;;;7.18;0.80;;;;;;;23.61;58.45;101531.19;5015958;28;20419;-66
2022/10/06 11:14:49;;;;;;;5.22;0.60;;;;;;;23.74;55.84;101527.56;5017031;28;20037;-67
2022/10/06 11:17:18;;;;;;;4.13;0.82;;;;;;;23.78;56.45;101522.81;5015893;28;20025;-66
2022/10/06 11:19:52;;;;;;;2.85;0.68;;;;;;;23.75;55.95;101533.88;5017488;28;20040;-67
2022/10/06 11:22:44;;;;;;;4.35;1.15;;;;;;;23.68;57.71;101529.81;5021896;28;20026;-66
2022/10/06 11:25:35;;;;;;;5.00;0.80;;;;;;;23.12;54.68;101535.97;5020173;28;20128;-66
2022/10/06 11:28:03;;;;;;;5.65;0.90;;;;;;;22.94;56.59;101528.94;5019243;28;20033;-66
2022/10/06 11:30:34;;;;;;;5.93;1.02;;;;;;;22.79;56.78;101528.00;5020394;28;20113;-66
2022/10/06 11:33:14;;;;;;;3.13;0.63;;;;;;;22.59;62.36;101528.28;5025161;28;20037;-67
2022/10/06 11:35:43;;;;;;;4.60;0.90;;;;;;;22.41;63.70;101525.72;5029105;28;20068;-67
2022/10/06 11:38:14;;;;;;;5.45;1.00;;;;;;;22.32;64.65;101528.97;5022114;28;20025;-67
2022/10/06 11:41:08;;;;;;;4.15;1.25;;;;;;;22.11;66.43;101521.09;5026258;28;20037;-67
2022/10/06 11:44:12;;;;;;;4.15;0.60;;;;;;;21.99;66.86;101523.63;5028336;28;20523;-67
2022/10/06 11:46:44;;;;;;;4.95;0.80;;;;;;;21.88;67.02;101526.03;5017070;28;20034;-66
2022/10/06 11:49:28;;;;;;;4.18;0.82;;;;;;;21.79;67.72;101523.84;5024854;28;20433;-66
2022/10/06 11:51:54;;;;;;;4.10;0.90;;;;;;;21.76;66.57;101529.41;5022349;28;20077;-66